Date,TemperatureHighF,TemperatureAvgF,TemperatureLowF,DewpointHighF,DewpointAvgF,DewpointLowF,HumidityHigh,HumidityAvg,HumidityLow,PressureMaxIn,PressureMinIn,WindSpeedMaxMPH,WindSpeedAvgMPH,GustSpeedMaxMPH,PrecipitationSumIn
2014-1-1,26.5,25.5,24.0,21.0,21.0,21.0,82,78,76,28.64,28.60,17,11,19,0.00
2014-1-2,29.3,28.8,28.2,21.0,21.0,21.0,71,70,69,28.95,28.93,10,6,12,0.00
2014-1-3,43.6,38.7,28.1,29.0,26.7,21.0,73,61,54,28.70,28.36,34,20,35,0.00
2014-1-4,40.6,39.5,36.3,31.0,28.0,26.0,74,62,56,28.45,28.43,30,12,30,0.00
2014-1-5,12.0,11.8,11.7,4.0,1.0,0.0,57,56,55,28.90,28.89,16,14,16,0.00
2014-1-7,37.7,35.0,29.4,28.0,24.8,21.0,74,65,62,28.74,28.67,17,9,18,0.00
2014-1-8,37.6,35.6,33.1,24.0,23.2,21.0,66,58,55,28.83,28.77,12,6,14,0.00
2014-1-11,52.0,49.8,46.0,35.0,32.1,31.0,61,50,43,28.59,28.55,15,7,18,0.00
2014-1-12,62.7,57.6,49.2,36.0,34.1,32.0,58,42,34,28.22,28.10,24,11,25,0.00
2014-1-13,52.2,44.6,35.3,31.0,27.9,24.0,66,52,35,28.61,28.46,17,7,19,0.00
2014-1-14,45.7,41.1,32.3,28.0,18.4,14.0,56,40,28,28.87,28.79,23,8,26,0.00
2014-1-15,49.1,42.9,35.4,29.0,26.6,24.0,70,52,40,28.82,28.50,19,9,19,0.00
2014-1-16,52.0,43.9,33.1,28.0,18.8,14.0,52,37,21,28.76,28.57,26,11,33,0.00
2014-1-18,52.2,43.1,26.7,28.0,24.7,21.0,79,49,35,28.77,28.56,35,9,35,0.00
2014-1-19,60.0,41.4,31.4,28.0,24.9,23.0,72,53,29,28.51,28.47,7,2,7,0.00
2014-1-20,54.2,38.3,23.9,29.0,23.4,11.0,88,57,31,28.97,28.44,26,8,39,0.00
2014-1-21,28.5,18.9,7.5,14.0,4.1,0.0,68,50,29,29.06,28.67,23,8,27,0.00
2014-1-22,41.8,31.3,14.9,24.0,16.0,4.0,70,51,37,29.04,28.68,24,8,26,0.00
2014-1-23,19.6,11.5,4.9,4.0,-2.9,-6.0,68,47,32,29.38,29.03,20,7,24,0.00
2014-1-24,48.2,35.8,14.7,24.0,16.3,4.0,56,44,31,28.94,28.52,26,12,27,0.00
2014-1-25,56.8,44.6,31.9,35.0,29.0,23.0,83,55,38,28.70,28.44,22,5,23,0.00
2014-1-26,60.4,41.4,23.7,33.0,25.8,4.0,91,58,28,28.83,28.34,42,8,43,0.02
2014-1-27,23.7,16.1,12.7,4.0,-4.0,-6.0,42,37,33,29.05,28.82,29,9,32,0.00
2014-1-28,29.2,16.9,6.1,14.0,3.0,-6.0,70,50,32,29.03,28.85,18,4,20,0.00
2014-1-29,48.8,27.8,8.3,18.0,10.8,4.0,88,52,23,28.86,28.41,29,11,32,0.00
2014-1-30,49.1,36.7,31.6,26.0,18.4,14.0,59,46,34,28.56,28.21,30,13,35,0.00
2014-1-31,31.6,24.7,21.9,21.0,17.4,14.0,95,73,58,28.60,28.39,21,8,24,0.00
2014-2-1,23.5,22.5,21.7,23.0,21.1,21.0,95,93,91,28.51,28.40,11,6,13,0.00
2014-2-2,29.7,25.0,16.4,14.0,12.5,8.0,68,55,48,28.96,28.85,12,5,12,0.00
2014-2-3,38.1,31.3,15.5,18.0,12.8,11.0,89,47,31,28.86,28.68,17,7,18,0.00
2014-2-4,31.6,23.4,10.2,28.0,21.4,8.0,97,91,44,28.84,28.52,26,8,26,0.00
2014-2-5,10.1,5.5,0.7,8.0,1.2,0.0,88,77,67,29.20,28.84,22,9,24,0.00
2014-2-6,11.6,6.3,1.8,4.0,-0.8,-6.0,76,64,50,29.20,28.97,9,4,9,0.00
2014-2-7,16.7,11.8,6.5,16.0,6.0,0.0,92,75,64,28.97,28.72,10,5,11,0.00
2014-2-8,27.3,23.7,16.7,28.0,22.5,16.0,98,92,88,28.73,28.59,16,5,16,0.00
2014-2-9,26.5,20.6,12.4,28.0,18.3,11.0,98,88,80,28.96,28.72,16,7,20,0.00
2014-2-10,16.0,12.1,9.7,11.0,8.0,4.0,91,79,68,29.02,28.93,15,7,16,0.00
2014-2-11,23.2,12.7,2.7,11.0,6.3,0.0,88,72,54,29.00,28.79,11,4,11,0.00
2014-2-12,38.4,27.3,8.1,31.0,23.4,4.0,95,83,69,28.74,28.56,18,5,18,0.18
2014-2-13,44.2,32.2,20.9,32.0,27.7,18.0,96,83,61,28.56,28.33,10,4,11,0.00
2014-2-14,47.9,38.5,27.3,36.0,31.8,26.0,94,77,63,28.70,28.29,18,5,19,0.01
2014-2-15,55.5,37.2,28.7,37.0,30.5,26.0,91,77,46,28.69,28.50,24,8,28,0.00
2014-2-16,55.8,41.1,26.7,36.0,31.4,26.0,96,71,42,28.71,28.36,18,6,19,0.00
2014-2-17,59.4,47.1,37.7,38.0,31.6,26.0,80,57,27,28.72,28.34,32,7,32,0.00
2014-2-18,71.3,50.2,36.9,36.0,30.6,28.0,71,50,23,28.62,28.38,24,8,27,0.00
2014-2-19,56.1,45.4,31.0,47.0,30.7,26.0,89,59,35,28.63,28.11,17,5,19,0.00
2014-2-20,57.4,46.3,33.9,57.0,36.2,18.0,99,73,29,28.58,27.96,29,10,35,0.12
2014-2-21,59.3,40.6,23.8,26.0,23.2,21.0,84,54,23,28.59,28.49,34,7,34,0.00
2014-2-22,60.1,40.3,25.4,33.0,27.1,23.0,89,64,27,28.62,28.45,18,5,18,0.00
2014-2-23,38.8,31.2,22.8,28.0,19.9,14.0,82,61,46,28.90,28.62,20,9,24,0.00
2014-2-24,49.1,31.5,18.6,29.0,20.3,14.0,84,63,44,28.89,28.66,16,5,21,0.00
2014-2-25,29.4,22.1,17.0,23.0,16.8,8.0,88,78,58,29.07,28.81,22,9,24,0.00
2014-2-26,35.7,20.2,1.2,18.0,12.0,0.0,91,69,38,29.05,28.63,18,5,22,0.00
2014-2-27,45.7,31.7,15.1,21.0,16.4,14.0,88,55,28,28.69,28.37,22,6,22,0.00
2014-2-28,48.1,39.5,32.5,38.0,29.0,16.0,89,66,47,28.62,28.25,18,7,19,0.00
2014-3-1,32.4,19.2,7.5,24.0,16.5,4.0,94,87,70,28.91,28.61,22,11,22,0.00
2014-3-2,7.4,5.0,3.0,4.0,0.9,0.0,87,77,65,29.06,28.86,24,12,27,0.27
2014-3-3,17.5,7.5,-3.1,4.0,-1.5,-6.0,79,62,41,29.10,28.77,16,6,17,0.00
2014-3-4,34.3,22.5,8.5,26.0,15.6,0.0,81,71,63,28.77,28.56,18,8,18,0.00
2014-3-5,37.2,30.7,26.8,29.0,26.5,24.0,96,84,68,28.87,28.58,18,6,20,0.00
2014-3-6,43.8,35.3,26.6,37.0,32.6,26.0,97,88,74,28.86,28.51,15,7,18,0.00
2014-3-7,56.8,43.0,33.1,41.0,36.0,28.0,91,77,55,28.69,28.40,26,10,26,0.00
2014-3-8,42.7,31.9,24.1,28.0,23.2,21.0,87,69,42,28.94,28.68,22,8,26,0.00
2014-3-9,61.8,41.2,20.8,37.0,28.4,18.0,92,64,34,28.91,28.62,24,8,28,0.00
2014-3-10,77.8,53.0,31.6,39.0,32.3,26.0,80,49,21,28.63,28.31,14,6,15,0.00
2014-3-11,69.7,51.0,34.8,50.0,38.6,31.0,89,64,34,28.71,28.09,33,13,39,0.00
2014-3-12,57.3,42.1,31.7,33.0,28.6,23.0,91,64,27,28.91,28.71,20,6,28,0.00
2014-3-13,68.3,49.8,28.9,29.0,24.2,23.0,76,43,17,28.77,28.43,29,9,30,0.00
2014-3-14,66.7,52.8,36.5,31.0,24.4,14.0,65,35,14,28.64,28.41,20,7,23,0.00
2014-3-15,72.6,50.7,29.9,51.0,36.4,23.0,79,59,39,28.62,28.36,25,7,30,0.00
2014-3-16,46.1,36.9,26.5,31.0,23.1,16.0,82,58,33,28.86,28.58,30,13,36,0.00
2014-3-17,56.9,40.3,22.5,32.0,25.3,16.0,85,57,38,28.68,28.09,27,11,30,0.00
2014-3-18,61.9,48.7,36.1,36.0,31.6,29.0,79,53,36,28.49,27.98,28,12,29,0.00
2014-3-19,57.4,42.6,30.7,32.0,27.9,23.0,84,59,30,28.83,28.50,24,7,27,0.00
2014-3-20,71.5,50.3,31.0,33.0,26.8,21.0,79,46,15,28.73,28.47,25,8,30,0.00
2014-3-21,63.1,54.6,47.2,35.0,30.4,24.0,58,40,25,28.74,28.31,25,9,28,0.00
2014-3-22,48.6,39.0,27.9,23.0,16.1,8.0,61,39,27,29.04,28.81,24,11,27,0.00
2014-3-23,46.2,32.0,18.6,21.0,18.1,16.0,91,58,33,29.11,28.83,19,6,20,0.00
2014-3-24,47.5,36.8,27.9,32.0,23.3,18.0,72,57,40,28.88,28.74,18,5,26,0.00
2014-3-25,47.8,36.6,23.0,28.0,19.0,14.0,80,51,27,29.04,28.74,17,5,19,0.00
2014-3-26,52.0,41.6,34.5,42.0,31.9,18.0,96,70,42,28.75,28.22,39,18,43,0.10
2014-3-27,67.8,55.4,37.8,54.0,43.4,31.0,89,67,35,28.51,28.01,36,16,41,0.00
2014-3-28,57.5,41.4,32.5,37.0,31.1,28.0,83,67,45,28.76,28.49,16,6,20,0.00
2014-3-29,64.8,44.6,26.1,37.0,31.1,24.0,97,64,30,28.94,28.74,16,4,16,0.00
2014-3-30,74.9,60.5,46.9,39.0,35.5,29.0,60,41,26,28.74,28.33,38,18,41,0.00
2014-3-31,71.8,61.8,40.4,49.0,33.0,24.0,68,36,18,28.67,28.24,34,14,37,0.00
2014-4-1,56.0,43.1,29.9,33.0,27.2,23.0,75,54,36,28.73,28.52,17,6,18,0.00
2014-4-2,72.3,52.1,44.4,53.0,43.7,31.0,98,76,47,28.53,28.26,19,8,21,0.00
2014-4-3,48.2,44.7,37.9,48.0,43.2,33.0,100,94,84,28.60,28.21,22,8,26,0.00
2014-4-4,56.0,41.9,31.4,35.0,29.6,24.0,92,64,32,28.81,28.59,21,7,24,0.00
2014-4-5,63.7,50.3,32.2,32.0,29.2,24.0,81,47,26,28.76,28.58,21,10,22,0.00
2014-4-6,58.9,52.3,45.5,43.0,40.9,29.0,90,67,42,28.65,28.45,26,6,29,0.01
2014-4-7,58.7,50.3,38.1,47.0,41.2,35.0,92,72,54,28.61,28.41,27,7,30,0.03
2014-4-8,64.7,50.8,37.4,38.0,30.6,18.0,84,50,20,28.75,28.61,27,9,37,0.01
2014-4-9,83.4,59.1,32.5,41.0,32.4,21.0,65,39,20,28.74,28.39,33,13,35,0.01
2014-4-10,71.7,62.6,47.8,45.0,39.3,33.0,75,45,27,28.57,28.33,31,11,31,0.00
2014-4-11,80.0,66.1,48.2,56.0,39.1,28.0,70,39,25,28.66,28.48,19,7,21,0.00
2014-4-12,87.2,70.9,59.2,61.0,57.7,54.0,93,67,34,28.50,28.15,36,17,38,0.00
2014-4-13,77.3,58.0,33.7,62.0,50.3,31.0,92,76,57,28.54,28.09,33,15,36,0.03
2014-4-14,48.6,37.8,30.9,32.0,22.0,14.0,95,57,25,28.84,28.49,30,12,36,0.00
2014-4-15,63.2,44.9,21.5,26.0,20.5,16.0,82,43,19,28.83,28.53,26,9,26,0.00
2014-4-16,71.0,50.6,45.5,29.0,25.2,18.0,46,37,21,28.53,28.43,44,22,45,0.08
2014-4-17,53.0,42.9,35.6,36.0,33.1,28.0,83,68,49,28.93,28.85,14,5,16,0.01
2014-4-18,70.8,51.4,29.2,45.0,38.2,28.0,99,65,38,28.90,28.69,24,7,25,0.00
2014-4-19,79.8,64.7,50.4,51.0,46.5,39.0,73,54,36,28.74,28.60,36,15,37,0.01
2014-4-20,70.7,64.2,57.7,61.0,54.0,49.0,86,71,59,28.70,28.57,23,11,23,0.00
2014-4-21,80.5,64.4,51.9,58.0,49.4,32.0,99,64,27,28.73,28.59,25,6,25,0.00
2014-4-22,75.5,59.9,39.7,37.0,32.4,29.0,69,39,20,28.78,28.55,18,6,18,0.00
2014-4-23,85.0,70.0,55.8,54.0,44.3,35.0,62,40,28,28.56,28.20,40,16,40,0.01
2014-4-24,68.9,59.7,45.5,59.0,47.5,37.0,97,67,32,28.54,28.20,32,11,36,0.25
2014-4-25,81.3,62.5,37.9,44.0,39.9,35.0,91,51,22,28.58,28.38,33,13,35,0.00
2014-4-26,86.1,72.9,60.9,62.0,50.9,40.0,69,47,40,28.42,28.09,36,19,36,0.00
2014-4-27,79.5,70.0,57.2,65.0,51.3,33.0,92,58,20,28.14,27.85,42,19,44,0.15
2014-4-28,59.3,52.9,45.8,43.0,38.5,36.0,75,59,42,28.24,27.97,34,14,42,0.00
2014-4-29,49.5,44.5,40.1,40.0,37.8,36.0,91,78,64,28.61,28.22,32,12,34,0.08
2014-4-30,57.1,48.0,39.6,38.0,32.4,26.0,82,57,32,28.71,28.60,25,9,31,0.00
2014-5-1,62.2,50.4,37.2,36.0,32.0,29.0,73,51,31,28.71,28.62,24,6,26,0.00
2014-5-2,72.8,61.2,36.8,38.0,31.2,26.0,91,36,19,28.65,28.48,18,6,22,0.00
2014-5-3,91.4,67.6,43.4,39.0,35.0,31.0,70,34,13,28.56,28.43,22,8,23,0.00
2014-5-4,101.8,78.9,58.2,41.0,35.4,26.0,49,24,7,28.50,28.24,24,13,28,0.00
2014-5-5,87.5,73.4,60.9,53.0,44.4,33.0,70,37,22,28.34,28.27,15,5,16,0.00
2014-5-6,101.7,78.0,55.6,61.0,50.8,23.0,86,49,6,28.33,28.07,34,12,36,0.00
2014-5-7,93.6,78.8,66.2,66.0,60.1,54.0,84,57,27,28.31,28.15,34,16,37,0.00
2014-5-8,80.2,71.4,58.2,63.0,53.1,41.0,87,57,28,28.50,28.28,28,12,29,0.00
2014-5-9,77.0,61.7,47.5,46.0,41.8,40.0,79,51,27,28.61,28.43,15,6,18,0.00
2014-5-10,91.2,72.6,58.1,64.0,52.9,39.0,87,55,18,28.48,28.27,22,8,24,0.06
2014-5-11,88.2,77.0,66.7,67.0,63.4,59.0,92,66,38,28.36,28.14,40,19,42,0.44
2014-5-12,68.3,57.5,51.9,64.0,-14.7,-23.0,94,8,2,28.58,28.25,19,8,24,1.41
2014-5-13,64.1,54.6,45.7,39.0,36.8,33.0,79,53,33,28.91,28.77,23,8,2769,0.00
2014-5-14,67.7,55.0,40.9,44.0,36.6,31.0,93,56,27,28.92,28.76,15,4,20,0.00
2014-5-15,64.6,54.0,43.6,41.0,35.6,26.0,87,54,28,28.86,28.73,18,5,18,0.00
2014-5-16,61.3,50.1,40.5,41.0,36.7,32.0,82,61,43,28.77,28.62,16,6,21,0.00
2014-5-17,64.0,52.2,38.7,42.0,38.9,37.0,96,64,40,28.81,28.72,15,4,18,0.00
2014-5-18,75.3,62.0,49.1,59.0,50.3,39.0,93,67,51,28.77,28.50,24,9,26,0.02
2014-5-19,88.8,75.3,64.5,61.0,59.2,57.0,80,60,38,28.52,28.27,38,21,42,0.00
2014-5-20,94.3,80.1,66.9,61.0,58.6,50.0,77,52,24,28.46,28.35,30,13,34,0.00
2014-5-21,73.8,70.5,68.8,60.0,59.2,59.0,72,68,62,28.47,28.45,17,7,18,0.00
2014-5-22,83.2,76.7,69.4,68.0,65.0,62.0,83,68,56,28.73,28.61,14,6,18,0.01
2014-5-23,71.7,66.6,62.1,67.0,63.2,60.0,99,90,77,28.75,28.66,16,5,17,0.87
2014-5-24,79.3,73.0,68.0,68.0,65.1,63.0,90,78,66,28.62,28.54,189,9,189,0.00
2014-5-25,71.1,66.8,64.5,67.0,64.4,63.0,97,94,88,28.66,28.59,21,6,24,0.37
2014-5-26,74.0,68.0,64.5,66.0,61.9,61.0,97,82,71,28.64,28.56,13,6,14,0.00
2014-5-27,78.6,67.7,61.7,66.0,63.2,60.0,96,87,64,28.64,28.55,10,3,12,0.00
2014-5-28,89.5,71.5,59.2,67.0,62.8,59.0,100,79,41,28.65,28.55,8,-3,9,0.00
2014-5-29,87.7,77.1,64.1,69.0,64.0,60.0,99,68,41,28.62,28.52,14,4,16,0.00
2014-5-30,82.8,74.8,66.2,67.0,65.2,63.0,96,74,52,28.66,28.57,17,5,17,0.00
2014-5-31,83.8,74.7,64.2,68.0,65.1,62.0,99,74,51,28.69,28.54,15,5,21,0.00
2014-6-1,86.6,75.7,65.6,94.0,66.4,61.0,97,75,50,28.59,28.33,36,12,37,0.66
2014-6-2,83.5,72.4,64.9,71.0,66.8,63.0,98,85,64,28.63,28.44,10,3,11,0.00
2014-6-3,89.5,85.1,75.0,71.0,68.7,67.0,85,59,49,28.61,28.31,32,16,34,0.00
2014-6-4,90.4,80.6,72.6,73.0,69.5,66.0,87,70,53,28.44,28.26,29,9,35,0.00
2014-6-5,74.9,70.4,62.9,71.0,67.2,62.0,99,91,81,28.54,28.28,29,7,34,1.31
2014-6-6,70.7,67.7,64.4,68.0,66.2,64.0,100,96,89,28.62,28.51,8,3,10,0.00
2014-6-7,68.9,64.4,63.4,67.0,63.1,62.0,99,97,94,28.59,28.36,22,6,27,1.24
2014-6-8,75.1,68.9,64.8,63.0,60.8,60.0,94,77,63,28.56,28.46,12,6,1681,0.00
2014-6-9,65.0,62.5,61.5,64.0,60.8,60.0,99,95,86,28.54,28.30,15,6,21,0.33
2014-6-10,72.8,67.1,63.8,63.0,61.8,61.0,92,84,71,28.51,28.47,99,2,98,0.00
2014-6-11,86.8,72.2,58.3,67.0,62.6,57.0,98,75,48,28.53,28.34,20,5,23,0.00
2014-6-12,76.6,68.3,59.1,66.0,59.3,54.0,96,76,48,28.71,28.42,24,7,25,0.27
2014-6-13,78.8,67.6,53.7,57.0,54.2,50.0,100,67,40,28.74,28.52,20,6,23,0.00
2014-6-14,88.7,77.8,67.6,70.0,65.0,57.0,83,66,46,28.52,28.22,36,19,42,0.00
2014-6-15,81.4,71.5,62.0,71.0,65.2,61.0,99,82,61,28.56,28.21,39,6,43,0.81
2014-6-16,89.0,80.2,72.2,73.0,71.4,69.0,97,77,60,28.56,28.35,41,17,41,0.00
2014-6-17,92.6,84.8,75.6,73.0,70.5,67.0,77,64,50,28.45,28.34,34,22,41,0.00
2014-6-18,91.5,85.0,79.7,72.0,71.1,70.0,73,64,51,28.50,28.42,22,15,27,0.00
2014-6-19,87.7,81.0,73.9,72.0,66.4,61.0,85,63,45,28.65,28.46,22,9,24,0.00
2014-6-20,93.3,81.4,70.3,72.0,67.2,60.0,98,66,38,28.70,28.55,23,8,26,0.00
2014-6-21,93.9,81.9,70.3,68.0,64.3,58.0,88,59,31,28.65,28.45,23,9,25,0.00
2014-6-22,92.7,79.0,64.0,69.0,66.0,59.0,97,68,41,28.58,28.37,23,9,26,1.26
2014-6-23,86.0,73.4,65.2,68.0,65.5,63.0,98,79,49,28.66,28.49,15,4,19,0.01
2014-6-24,83.2,69.6,63.8,96.0,64.8,61.0,100,86,58,28.71,28.63,24,4,37,0.57
2014-6-25,84.8,70.8,61.6,69.0,64.8,61.0,99,84,54,28.68,28.55,13,4,14,0.00
2014-6-26,74.8,71.5,66.5,70.0,68.3,63.0,96,90,81,28.62,28.46,18,8,24,0.05
2014-6-30,93.2,83.4,70.2,77.0,73.2,67.0,92,73,56,28.51,28.34,30,8,30,0.77
2014-7-1,85.8,75.0,64.4,69.0,62.6,56.0,98,69,42,28.71,28.47,20,4,23,0.38
2014-7-2,81.0,69.5,57.6,60.0,55.0,50.0,95,63,38,28.83,28.71,18,5,20,0.00
2014-7-3,81.2,68.4,53.8,59.0,55.1,52.0,98,66,43,28.87,28.77,12,4,14,0.00
2014-7-4,85.9,74.9,63.2,67.0,61.3,57.0,82,64,48,28.87,28.72,21,8,22,0.00
2014-7-5,92.5,81.7,71.3,71.0,69.3,67.0,91,68,46,28.76,28.56,27,13,30,0.00
2014-7-6,97.0,84.1,72.2,74.0,69.6,66.0,87,65,39,28.59,28.48,21,9,23,0.00
2014-7-7,100.3,85.2,68.5,72.0,66.9,63.0,88,59,30,28.53,28.36,25,10,28,0.00
2014-7-8,87.0,80.8,72.4,65.0,58.8,52.0,75,50,31,28.71,28.63,12,6,14,0.00
2014-7-9,89.2,86.1,79.4,62.0,59.3,56.0,55,41,36,28.73,28.58,15,7,21,0.00
2014-7-10,84.5,80.6,71.9,70.0,67.2,65.0,79,65,57,28.66,28.56,20,10,20,0.00
2014-7-13,86.8,82.9,77.0,72.0,71.2,70.0,82,69,60,28.68,28.66,16,8,17,0.00
2014-7-16,67.1,63.4,58.6,59.0,57.7,57.0,94,83,73,28.71,28.66,10,3,11,0.00
2014-7-17,68.4,63.4,58.0,62.0,60.0,57.0,97,90,75,28.73,28.67,11,3,14,0.22
2014-7-18,75.3,67.1,61.4,61.0,59.6,58.0,97,80,57,28.74,28.63,15,6,18,0.00
2014-7-19,82.2,69.8,57.7,66.0,62.0,57.0,98,79,57,28.68,28.57,20,7,21,0.00
2014-7-20,90.8,77.4,65.0,74.0,68.2,62.0,94,76,57,28.61,28.49,26,13,28,0.00
2014-7-21,96.8,83.6,72.0,77.0,72.8,70.0,98,73,44,28.64,28.55,24,12,25,0.00
2014-7-22,99.4,85.9,74.6,76.0,73.3,70.0,96,70,40,28.72,28.62,16,6,18,0.00
2014-7-23,90.5,80.1,73.2,74.0,68.9,64.0,95,71,45,28.82,28.69,20,5,24,0.00
2014-7-24,90.4,78.7,66.5,71.0,67.1,63.0,92,70,48,28.77,28.56,24,7,25,0.00
2014-7-25,101.8,86.9,72.7,72.0,67.9,60.0,88,58,30,28.58,28.40,33,13,33,0.00
2014-7-26,101.3,86.6,74.7,75.0,67.2,63.0,74,55,32,28.54,28.44,24,8,24,0.00
2014-7-27,91.2,80.4,70.5,75.0,65.0,53.0,92,63,27,28.80,28.53,34,5,43,0.08
2014-7-28,70.2,68.9,68.4,57.0,56.2,56.0,66,65,63,28.79,28.78,2,1,3,0.00
2014-7-29,88.0,83.2,70.5,63.0,61.0,59.0,71,48,41,28.83,28.66,11,5,14,0.00
2014-7-31,84.3,78.6,67.1,64.0,57.9,54.0,90,51,36,28.78,28.66,10,4,11,0.00
2014-8-1,92.8,85.4,71.5,64.0,59.0,52.0,76,43,28,28.70,28.63,16,6,17,0.00
2014-8-11,85.1,75.8,65.0,59.0,57.2,56.0,76,55,39,28.79,28.71,15,5,20,0.00
2014-8-12,85.8,71.3,56.1,61.0,56.8,54.0,96,65,36,28.83,28.68,11,3,14,0.00
2014-8-13,86.0,73.8,60.5,65.0,59.2,55.0,84,62,45,28.79,28.66,13,5,13,0.00
2014-8-14,88.3,77.6,66.7,68.0,64.1,60.0,82,65,49,28.71,28.55,19,8,23,0.00
2014-8-15,91.5,80.3,71.2,72.0,66.9,63.0,84,66,40,28.59,28.45,24,9,27,0.01
2014-8-16,93.5,80.6,68.1,71.0,67.9,65.0,91,68,44,28.56,28.46,14,4,14,0.00
2014-8-17,94.1,80.7,67.1,72.0,68.9,63.0,97,71,45,28.66,28.50,27,4,38,0.00
2014-8-18,92.5,78.2,65.4,72.0,67.5,64.0,97,73,44,28.70,28.42,23,6,33,0.16
2014-8-19,95.2,82.7,67.8,69.0,64.7,58.0,85,57,35,28.53,28.41,20,7,21,0.00
2014-8-20,95.1,83.2,71.2,70.0,68.4,65.0,89,63,43,28.51,28.42,28,12,30,0.00
2014-8-21,98.1,86.3,75.4,72.0,68.6,66.0,79,58,39,28.55,28.46,27,15,31,0.00
2014-8-22,100.6,86.7,76.4,72.0,68.6,64.0,75,57,34,28.56,28.47,26,10,28,0.00
2014-8-23,99.7,85.8,71.4,68.0,60.8,51.0,73,46,20,28.55,28.43,29,11,32,0.00
2014-8-24,100.4,87.4,75.8,66.0,62.3,59.0,63,45,27,28.55,28.43,24,12,26,0.00
2014-8-25,99.3,87.1,74.3,68.0,65.7,62.0,78,51,33,28.65,28.51,18,7,20,0.00
2014-8-26,92.7,79.1,69.9,69.0,66.3,61.0,83,67,45,28.76,28.65,22,6,22,0.00
2014-8-27,88.1,81.5,71.3,69.0,66.9,65.0,90,63,47,28.75,28.60,13,4,13,0.00
2014-8-28,81.6,75.2,68.1,71.0,67.5,60.0,95,78,58,28.62,28.47,22,8,28,0.56
2014-8-29,84.8,73.7,66.2,71.0,66.5,63.0,96,80,55,28.56,28.46,16,6,19,0.04
2014-8-30,91.9,77.0,62.7,70.0,64.0,58.0,100,70,34,28.62,28.50,11,3,11,0.00
2014-8-31,96.2,80.8,68.5,71.0,66.3,61.0,92,66,36,28.53,28.25,37,12,42,0.04
2014-9-1,80.8,71.2,62.4,71.0,65.7,60.0,98,84,68,28.56,28.40,27,7,48,0.87
2014-9-2,86.3,76.3,68.8,72.0,68.7,66.0,98,80,54,28.65,28.53,14,6,17,0.34
2014-9-3,93.7,81.8,71.1,73.0,70.2,68.0,95,71,46,28.58,28.42,32,13,33,0.00
2014-9-4,94.3,83.7,74.2,68.0,65.2,62.0,76,56,36,28.59,28.46,31,15,35,0.00
2014-9-5,79.9,69.2,60.4,67.0,59.3,53.0,89,72,56,28.90,28.58,22,9,24,0.00
2014-9-6,76.9,64.7,55.3,58.0,54.3,48.0,98,73,39,28.92,28.81,12,5,15,0.07
2014-9-7,80.2,64.8,49.6,56.0,52.3,49.0,100,69,37,28.86,28.66,10,3,12,0.00
2014-9-8,89.1,74.6,58.2,68.0,63.3,53.0,97,71,49,28.70,28.48,28,11,29,0.00
2014-9-9,95.8,83.4,72.3,70.0,67.1,63.0,89,62,36,28.52,28.22,36,16,42,0.00
2014-9-10,83.4,68.1,60.0,71.0,63.5,57.0,98,87,57,28.67,28.22,25,7,33,0.22
2014-9-11,67.1,59.7,55.4,57.0,53.8,51.0,93,82,67,28.87,28.67,17,8,22,0.00
2014-9-12,56.5,51.8,49.1,51.0,47.6,42.0,96,86,74,29.06,28.85,19,8,23,0.09
2014-9-13,66.8,52.9,37.3,47.0,41.3,37.0,100,69,38,29.05,28.82,16,5,18,0.00
2014-9-14,81.6,64.8,49.5,62.0,54.1,47.0,93,71,50,28.86,28.64,24,9,28,0.00
2014-9-15,77.4,67.6,61.1,66.0,61.5,54.0,95,82,67,28.86,28.64,17,8,24,0.00
2014-9-16,78.9,65.7,55.4,65.0,56.5,50.0,90,74,56,28.87,28.62,12,6,16,0.00
2014-9-17,95.2,77.0,65.0,71.0,66.9,64.0,99,75,39,28.62,28.44,14,6,18,0.00
2014-9-18,86.8,74.3,67.1,69.0,63.8,57.0,97,74,37,28.65,28.48,23,11,31,0.00
2014-9-19,90.0,75.5,63.2,69.0,65.2,62.0,98,74,42,28.63,28.52,22,8,24,0.00
2014-9-20,91.8,77.1,66.2,70.0,66.4,63.0,98,74,41,28.68,28.56,18,8,27,0.03
2014-9-21,79.3,69.4,54.4,69.0,55.3,45.0,96,66,30,28.90,28.67,15,5,18,0.00
2014-9-22,78.5,63.6,46.4,54.0,48.3,44.0,96,62,31,28.96,28.79,10,4,12,0.00
2014-9-23,78.2,67.9,59.1,56.0,53.3,50.0,81,62,44,28.83,28.66,24,10,29,0.01
2014-9-24,77.6,65.4,58.8,63.0,58.1,54.0,96,79,56,28.81,28.71,20,8,25,0.08
2014-9-25,85.7,70.9,58.4,59.0,55.2,53.0,85,61,39,28.83,28.74,15,7,16,0.00
2014-9-26,83.3,69.9,57.4,58.0,55.1,53.0,89,63,37,28.79,28.69,18,6,20,0.00
2014-9-27,82.9,71.0,60.0,59.0,56.8,54.0,88,64,41,28.76,28.64,20,8,23,0.00
2014-9-28,83.1,71.2,60.0,61.0,56.4,53.0,89,63,38,28.76,28.67,17,5,19,0.00
2014-9-29,85.0,71.9,57.1,63.0,58.1,56.0,98,66,38,28.73,28.54,13,5,18,0.00
2014-9-30,85.5,74.3,64.4,64.0,60.4,57.0,82,64,42,28.58,28.32,29,11,31,0.00
2014-10-1,89.2,74.9,65.3,67.0,63.4,53.0,95,71,30,28.40,28.29,22,6,27,0.02
2014-10-2,67.5,61.5,52.8,64.0,56.8,49.0,99,86,69,28.60,28.32,21,6,27,0.00
2014-10-3,59.5,50.6,38.2,50.0,37.7,29.0,96,65,33,28.92,28.60,26,8,29,0.00
2014-10-4,72.9,52.9,34.2,40.0,33.6,29.0,85,52,24,28.81,28.49,13,3,19,0.00
2014-10-5,79.7,64.6,50.2,51.0,42.4,37.0,77,48,24,28.56,28.43,21,6,24,0.00
2014-10-6,81.9,63.5,48.7,52.0,47.1,43.0,92,61,26,28.55,28.35,20,4,22,0.00
2014-10-7,87.0,68.8,50.2,51.0,47.9,43.0,85,52,25,28.66,28.40,15,4,18,0.00
2014-10-8,79.8,68.3,57.3,66.0,54.5,46.0,87,63,43,28.70,28.54,20,7,20,0.00
2014-10-9,82.0,69.1,57.9,68.0,63.9,57.0,98,85,53,28.64,28.51,18,7,20,0.05
2014-10-10,57.9,50.3,45.5,57.0,48.0,40.0,99,92,77,28.83,28.59,25,10,25,1.41
2014-10-11,64.4,51.7,44.2,46.0,42.5,38.0,92,74,44,28.84,28.64,11,4,12,0.00
2014-10-12,64.6,53.4,42.5,54.0,48.0,41.0,98,83,62,28.64,28.27,25,7,30,0.30
2014-10-13,60.8,54.4,51.6,54.0,49.7,40.0,100,86,56,28.52,28.29,29,10,35,0.67
2014-10-14,67.5,55.6,44.8,43.0,39.9,37.0,85,58,33,28.68,28.52,21,8,26,0.00
2014-10-15,72.8,54.4,37.0,49.0,42.5,36.0,100,69,35,28.76,28.55,11,3,14,0.00
2014-10-16,76.5,61.4,50.8,56.0,49.7,44.0,95,68,42,28.55,28.40,15,5,15,0.00
2014-10-17,69.8,55.3,44.8,50.0,46.1,41.0,95,73,46,28.77,28.53,18,4,19,0.00
2014-10-18,66.3,52.1,41.0,47.0,44.0,40.0,96,76,44,28.90,28.77,11,3,13,0.00
2014-10-19,67.9,56.4,42.5,54.0,48.6,41.0,97,77,53,28.80,28.63,20,6,22,0.00
2014-10-20,79.5,61.9,47.4,60.0,51.0,45.0,100,74,31,28.72,28.64,14,3,14,0.00
2014-10-21,79.6,62.4,44.8,61.0,53.8,44.0,100,77,48,28.75,28.63,17,5,19,0.00
2014-10-22,77.7,66.3,58.1,60.0,57.0,54.0,95,76,45,28.76,28.66,27,9,29,0.02
2014-10-23,72.9,64.0,59.9,62.0,59.1,57.0,96,86,68,28.76,28.66,11,5,13,0.01
2014-10-24,81.3,61.9,56.4,63.0,58.6,56.0,100,91,54,28.71,28.61,15,6,15,0.00
2014-10-25,89.5,68.7,50.8,66.0,58.3,50.0,100,75,32,28.72,28.57,18,4,18,0.00
2014-10-26,88.0,73.2,60.5,60.0,56.2,50.0,85,59,36,28.58,28.25,35,14,41,0.00
2014-10-27,71.1,64.6,53.6,54.0,48.5,39.0,69,57,43,28.66,28.20,23,8,23,0.00
2014-10-28,66.8,51.9,38.1,44.0,38.8,35.0,97,65,30,28.83,28.65,19,3,19,0.00
2014-10-29,70.8,51.6,34.0,39.0,35.8,32.0,95,60,29,28.87,28.69,19,5,21,0.00
2014-10-30,70.6,56.7,44.1,41.0,37.9,35.0,75,52,30,28.92,28.64,23,8,28,0.00
2014-10-31,50.0,41.2,28.7,39.0,28.2,18.0,82,61,31,29.14,28.92,23,8,24,0.00
2014-11-1,53.9,41.9,30.0,26.0,20.7,18.0,66,44,24,29.03,28.77,25,11,26,0.00
2014-11-2,61.7,53.2,45.3,47.0,37.7,24.0,72,56,39,28.78,28.57,39,22,39,0.00
2014-11-3,66.3,56.5,47.5,58.0,48.9,40.0,92,76,67,28.78,28.53,33,17,35,0.12
2014-11-4,47.4,46.4,45.5,40.0,39.3,39.0,80,78,75,28.78,28.77,14,7,22,0.00
2014-11-5,67.8,58.8,36.4,41.0,37.2,32.0,97,48,32,28.85,28.73,19,8,21,0.00
2014-11-6,60.2,52.7,39.8,32.0,29.7,26.0,67,42,28,29.06,28.96,20,6,21,0.00
2014-11-7,69.0,60.9,45.1,45.0,39.8,31.0,66,46,40,28.68,28.45,35,16,37,0.00
2014-11-8,57.4,46.8,35.0,36.0,30.6,28.0,75,55,32,28.91,28.67,20,6,24,0.00
2014-11-9,67.6,56.1,38.1,45.0,41.5,29.0,80,59,42,28.67,28.26,21,9,22,0.00
2014-11-10,71.8,50.3,29.7,47.0,36.1,21.0,78,60,34,28.59,28.00,41,18,42,0.00
2014-11-11,33.2,26.4,19.3,21.0,13.3,8.0,75,56,34,29.04,28.58,32,13,37,0.00
2014-11-12,19.3,17.7,16.5,11.0,11.0,11.0,73,69,66,29.08,29.04,18,10,20,0.00
2014-11-13,30.6,22.9,14.6,14.0,10.8,8.0,78,57,41,29.22,29.04,16,6,18,0.00
2014-11-14,18.4,16.3,13.9,14.0,12.2,8.0,84,78,74,29.06,28.98,3,1,3,0.00
2014-11-16,24.6,21.0,16.9,14.0,11.5,8.0,75,62,53,28.85,28.72,13,6,14,0.00
2014-11-24,49.4,45.6,38.9,26.0,24.1,21.0,53,42,34,28.65,28.45,27,10,28,0.00
2014-11-25,49.9,43.6,28.4,29.0,26.4,23.0,79,51,40,28.86,28.65,18,10,21,0.00
2014-12-8,40.1,39.3,38.3,40.0,39.3,38.0,100,100,99,28.95,28.94,5,4,5,0.00
2014-12-9,43.6,37.9,30.6,32.0,30.4,28.0,90,73,62,29.05,28.91,12,6,14,0.00
2014-12-30,11.9,11.1,10.5,8.0,7.4,4.0,83,80,73,29.33,29.27,18,13,22,0.00
2015-1-1,28.7,27.5,26.3,23.0,21.4,21.0,77,75,74,28.86,28.80,12,9,13,0.00